sensor_id;sensor_type;location;lat;lon;timestamp;pressure;altitude;pressure_sealevel;temperature;humidity
61271;BME280;47150;53.032;8.960;2022-09-09T00:05:17;100805.09;;;13.91;100.00
61271;BME280;47150;53.032;8.960;2022-09-09T00:07:55;100810.16;;;13.99;100.00
61271;BME280;47150;53.032;8.960;2022-09-09T00:10:33;100793.63;;;13.92;100.00
61271;BME280;47150;53.032;8.960;2022-09-09T00:13:30;100798.09;;;13.90;100.00
61271;BME280;47150;53.032;8.960;2022-09-09T00:21:44;100793.00;;;13.84;100.00
61271;BME280;47150;53.032;8.960;2022-09-09T00:24:25;100800.25;;;13.77;100.00
61271;BME280;47150;53.032;8.960;2022-09-09T00:27:04;100792.31;;;13.77;100.00
61271;BME280;47150;53.032;8.960;2022-09-09T00:29:50;100798.72;;;13.70;100.00
61271;BME280;47150;53.032;8.960;2022-09-09T00:32:28;100799.72;;;13.66;100.00
61271;BME280;47150;53.032;8.960;2022-09-09T00:34:58;100803.84;;;13.74;100.00
61271;BME280;47150;53.032;8.960;2022-09-09T00:37:31;100800.41;;;13.72;100.00
61271;BME280;47150;53.032;8.960;2022-09-09T00:40:00;100803.72;;;13.79;100.00
61271;BME280;47150;53.032;8.960;2022-09-09T00:42:41;100800.25;;;13.77;100.00
61271;BME280;47150;53.032;8.960;2022-09-09T00:47:44;100811.72;;;13.76;100.00
61271;BME280;47150;53.032;8.960;2022-09-09T00:50:24;100797.44;;;13.83;100.00
61271;BME280;47150;53.032;8.960;2022-09-09T00:55:49;100802.09;;;13.75;100.00
61271;BME280;47150;53.032;8.960;2022-09-09T00:58:30;100797.72;;;13.74;100.00
61271;BME280;47150;53.032;8.960;2022-09-09T01:01:08;100799.44;;;13.75;100.00
61271;BME280;47150;53.032;8.960;2022-09-09T01:03:56;100803.78;;;13.76;100.00
61271;BME280;47150;53.032;8.960;2022-09-09T01:14:45;100799.50;;;13.72;100.00
61271;BME280;47150;53.032;8.960;2022-09-09T01:17:26;100802.34;;;13.66;100.00
61271;BME280;47150;53.032;8.960;2022-09-09T01:22:50;100796.22;;;13.63;100.00
61271;BME280;47150;53.032;8.960;2022-09-09T01:28:47;100796.59;;;13.51;100.00
61271;BME280;47150;53.032;8.960;2022-09-09T01:31:19;100790.50;;;13.49;100.00
61271;BME280;47150;53.032;8.960;2022-09-09T01:33:48;100793.78;;;13.57;100.00
61271;BME280;47150;53.032;8.960;2022-09-09T01:36:21;100788.03;;;13.44;100.00
61271;BME280;47150;53.032;8.960;2022-09-09T01:38:48;100788.03;;;13.43;100.00
61271;BME280;47150;53.032;8.960;2022-09-09T01:41:13;100790.56;;;13.48;100.00
61271;BME280;47150;53.032;8.960;2022-09-09T01:43:39;100790.50;;;13.49;100.00
61271;BME280;47150;53.032;8.960;2022-09-09T01:46:04;100787.13;;;13.44;100.00
61271;BME280;47150;53.032;8.960;2022-09-09T01:48:31;100781.16;;;13.39;100.00
61271;BME280;47150;53.032;8.960;2022-09-09T01:50:56;100786.69;;;13.28;100.00
61271;BME280;47150;53.032;8.960;2022-09-09T01:53:23;100775.88;;;13.37;100.00
61271;BME280;47150;53.032;8.960;2022-09-09T01:59:01;100772.72;;;13.24;100.00
61271;BME280;47150;53.032;8.960;2022-09-09T02:01:52;100780.72;;;13.21;100.00
61271;BME280;47150;53.032;8.960;2022-09-09T02:04:38;100783.13;;;13.31;100.00
61271;BME280;47150;53.032;8.960;2022-09-09T02:07:38;100767.44;;;13.24;100.00
61271;BME280;47150;53.032;8.960;2022-09-09T02:10:20;100772.72;;;13.24;100.00
61271;BME280;47150;53.032;8.960;2022-09-09T02:13:05;100767.75;;;13.14;100.00
61271;BME280;47150;53.032;8.960;2022-09-09T02:18:26;100771.31;;;13.11;100.00
61271;BME280;47150;53.032;8.960;2022-09-09T02:20:56;100777.53;;;13.10;100.00
61271;BME280;47150;53.032;8.960;2022-09-09T02:23:23;100782.88;;;13.07;100.00
61271;BME280;47150;53.032;8.960;2022-09-09T02:25:51;100781.03;;;13.10;100.00
61271;BME280;47150;53.032;8.960;2022-09-09T02:28:21;100781.91;;;13.09;100.00
61271;BME280;47150;53.032;8.960;2022-09-09T02:30:51;100786.34;;;13.09;100.00
61271;BME280;47150;53.032;8.960;2022-09-09T02:33:24;100783.66;;;13.10;100.00
61271;BME280;47150;53.032;8.960;2022-09-09T02:35:55;100783.72;;;13.09;100.00
61271;BME280;47150;53.032;8.960;2022-09-09T02:38:29;100781.03;;;13.10;100.00
61271;BME280;47150;53.032;8.960;2022-09-09T02:41:00;100784.66;;;13.06;100.00
61271;BME280;47150;53.032;8.960;2022-09-09T02:43:31;100787.44;;;13.02;100.00
61271;BME280;47150;53.032;8.960;2022-09-09T02:46:10;100778.59;;;13.03;100.00
61271;BME280;47150;53.032;8.960;2022-09-09T02:48:58;100779.75;;;12.92;100.00
61271;BME280;47150;53.032;8.960;2022-09-09T02:52:18;100785.03;;;12.92;100.00
61271;BME280;47150;53.032;8.960;2022-09-09T02:54:31;100792.09;;;12.92;100.00
61271;BME280;47150;53.032;8.960;2022-09-09T02:57:17;100790.25;;;12.94;100.00
61271;BME280;47150;53.032;8.960;2022-09-09T02:59:48;100793.00;;;12.91;100.00
61271;BME280;47150;53.032;8.960;2022-09-09T03:02:15;100790.34;;;12.91;100.00
61271;BME280;47150;53.032;8.960;2022-09-09T03:04:41;100793.84;;;12.91;100.00
61271;BME280;47150;53.032;8.960;2022-09-09T03:07:09;100794.78;;;12.90;100.00
61271;BME280;47150;53.032;8.960;2022-09-09T03:09:36;100793.78;;;12.94;100.00
61271;BME280;47150;53.032;8.960;2022-09-09T03:12:02;100798.19;;;12.94;100.00
61271;BME280;47150;53.032;8.960;2022-09-09T03:14:29;100796.66;;;12.85;100.00
61271;BME280;47150;53.032;8.960;2022-09-09T03:16:55;100806.97;;;12.94;100.00
61271;BME280;47150;53.032;8.960;2022-09-09T03:19:23;100806.94;;;12.96;100.00
61271;BME280;47150;53.032;8.960;2022-09-09T03:21:49;100804.13;;;13.02;100.00
61271;BME280;47150;53.032;8.960;2022-09-09T03:24:15;100819.03;;;13.03;100.00
61271;BME280;47150;53.032;8.960;2022-09-09T03:26:41;100814.66;;;13.02;100.00
61271;BME280;47150;53.032;8.960;2022-09-09T03:29:10;100818.53;;;13.22;100.00
61271;BME280;47150;53.032;8.960;2022-09-09T03:31:37;100822.38;;;13.10;100.00
61271;BME280;47150;53.032;8.960;2022-09-09T03:34:04;100827.56;;;13.13;100.00
61271;BME280;47150;53.032;8.960;2022-09-09T03:36:30;100824.84;;;13.16;100.00
61271;BME280;47150;53.032;8.960;2022-09-09T03:38:56;100829.97;;;13.21;100.00
61271;BME280;47150;53.032;8.960;2022-09-09T03:41:22;100830.69;;;13.27;100.00
61271;BME280;47150;53.032;8.960;2022-09-09T03:43:51;100835.81;;;13.34;100.00
61271;BME280;47150;53.032;8.960;2022-09-09T03:46:24;100837.59;;;13.32;100.00
61271;BME280;47150;53.032;8.960;2022-09-09T03:48:51;100836.44;;;13.43;100.00
61271;BME280;47150;53.032;8.960;2022-09-09T03:51:19;100842.75;;;13.38;100.00
61271;BME280;47150;53.032;8.960;2022-09-09T03:53:46;100835.81;;;13.34;100.00
61271;BME280;47150;53.032;8.960;2022-09-09T03:56:12;100839.88;;;13.45;100.00
61271;BME280;47150;53.032;8.960;2022-09-09T03:58:37;100838.94;;;13.48;100.00
61271;BME280;47150;53.032;8.960;2022-09-09T04:01:06;100833.59;;;13.50;100.00
61271;BME280;47150;53.032;8.960;2022-09-09T04:03:38;100833.44;;;13.56;100.00
61271;BME280;47150;53.032;8.960;2022-09-09T04:06:05;100831.81;;;13.52;100.00
61271;BME280;47150;53.032;8.960;2022-09-09T04:08:32;100833.84;;;13.42;100.00
61271;BME280;47150;53.032;8.960;2022-09-09T04:10:58;100836.25;;;13.50;100.00
61271;BME280;47150;53.032;8.960;2022-09-09T04:13:25;100832.91;;;13.44;100.00
61271;BME280;47150;53.032;8.960;2022-09-09T04:15:53;100837.13;;;13.50;100.00
61271;BME280;47150;53.032;8.960;2022-09-09T04:18:20;100829.16;;;13.52;100.00
61271;BME280;47150;53.032;8.960;2022-09-09T04:20:48;100847.41;;;13.59;100.00
61271;BME280;47150;53.032;8.960;2022-09-09T04:23:15;100841.09;;;13.65;100.00
61271;BME280;47150;53.032;8.960;2022-09-09T04:25:48;100841.13;;;13.63;100.00
61271;BME280;47150;53.032;8.960;2022-09-09T04:28:15;100847.97;;;13.71;100.00
61271;BME280;47150;53.032;8.960;2022-09-09T04:30:42;100847.16;;;13.69;100.00
61271;BME280;47150;53.032;8.960;2022-09-09T04:33:09;100849.88;;;13.66;100.00
61271;BME280;47150;53.032;8.960;2022-09-09T04:35:36;100864.00;;;13.65;100.00
61271;BME280;47150;53.032;8.960;2022-09-09T04:38:04;100857.66;;;13.70;100.00
61271;BME280;47150;53.032;8.960;2022-09-09T04:40:33;100854.72;;;13.81;100.00
61271;BME280;47150;53.032;8.960;2022-09-09T04:42:59;100854.16;;;13.70;100.00
61271;BME280;47150;53.032;8.960;2022-09-09T04:45:26;100863.84;;;13.69;100.00
61271;BME280;47150;53.032;8.960;2022-09-09T04:47:52;100867.13;;;13.77;100.00
61271;BME280;47150;53.032;8.960;2022-09-09T04:50:19;100869.13;;;13.69;100.00
61271;BME280;47150;53.032;8.960;2022-09-09T04:52:44;100875.16;;;13.74;100.00
61271;BME280;47150;53.032;8.960;2022-09-09T04:55:10;100868.03;;;13.78;100.00
61271;BME280;47150;53.032;8.960;2022-09-09T04:57:37;100879.38;;;13.80;100.00
61271;BME280;47150;53.032;8.960;2022-09-09T05:00:04;100883.06;;;13.74;100.00
61271;BME280;47150;53.032;8.960;2022-09-09T05:02:30;100880.63;;;13.68;100.00
61271;BME280;47150;53.032;8.960;2022-09-09T05:04:57;100890.25;;;13.69;100.00
61271;BME280;47150;53.032;8.960;2022-09-09T05:07:23;100891.94;;;13.72;100.00
61271;BME280;47150;53.032;8.960;2022-09-09T05:09:49;100889.66;;;13.61;100.00
61271;BME280;47150;53.032;8.960;2022-09-09T05:12:15;100895.72;;;13.63;100.00
61271;BME280;47150;53.032;8.960;2022-09-09T05:14:44;100889.00;;;13.51;100.00
61271;BME280;47150;53.032;8.960;2022-09-09T05:17:10;100899.41;;;13.57;100.00
61271;BME280;47150;53.032;8.960;2022-09-09T05:19:36;100895.09;;;13.55;100.00
61271;BME280;47150;53.032;8.960;2022-09-09T05:22:02;100895.22;;;13.50;100.00
61271;BME280;47150;53.032;8.960;2022-09-09T05:24:28;100893.44;;;13.51;100.00
61271;BME280;47150;53.032;8.960;2022-09-09T05:26:54;100896.88;;;13.54;100.00
61271;BME280;47150;53.032;8.960;2022-09-09T05:29:21;100901.06;;;13.61;100.00
61271;BME280;47150;53.032;8.960;2022-09-09T05:31:46;100897.50;;;13.62;100.00
61271;BME280;47150;53.032;8.960;2022-09-09T05:34:12;100893.91;;;13.65;100.00
61271;BME280;47150;53.032;8.960;2022-09-09T05:36:37;100904.34;;;13.70;100.00
61271;BME280;47150;53.032;8.960;2022-09-09T05:39:03;100907.75;;;13.73;100.00
61271;BME280;47150;53.032;8.960;2022-09-09T05:41:29;100902.41;;;13.76;100.00
61271;BME280;47150;53.032;8.960;2022-09-09T05:43:55;100911.13;;;13.78;100.00
61271;BME280;47150;53.032;8.960;2022-09-09T05:46:22;100910.09;;;13.84;100.00
61271;BME280;47150;53.032;8.960;2022-09-09T05:48:50;100910.28;;;13.78;100.00
61271;BME280;47150;53.032;8.960;2022-09-09T05:51:19;100913.00;;;13.75;100.00
61271;BME280;47150;53.032;8.960;2022-09-09T05:53:48;100910.09;;;13.84;100.00
61271;BME280;47150;53.032;8.960;2022-09-09T05:56:15;100912.72;;;13.84;100.00
61271;BME280;47150;53.032;8.960;2022-09-09T05:58:43;100918.84;;;13.86;100.00
61271;BME280;47150;53.032;8.960;2022-09-09T06:01:19;100911.72;;;13.88;100.00
61271;BME280;47150;53.032;8.960;2022-09-09T06:03:48;100915.00;;;13.96;100.00
61271;BME280;47150;53.032;8.960;2022-09-09T06:06:17;100916.75;;;13.98;100.00
61271;BME280;47150;53.032;8.960;2022-09-09T06:08:48;100908.19;;;13.89;100.00
61271;BME280;47150;53.032;8.960;2022-09-09T06:11:19;100915.69;;;14.03;100.00
61271;BME280;47150;53.032;8.960;2022-09-09T06:13:49;100913.81;;;14.08;100.00
61271;BME280;47150;53.032;8.960;2022-09-09T06:16:19;100920.03;;;14.06;100.00
61271;BME280;47150;53.032;8.960;2022-09-09T06:18:49;100912.84;;;14.11;100.00
61271;BME280;47150;53.032;8.960;2022-09-09T06:21:18;100918.72;;;14.21;100.00
61271;BME280;47150;53.032;8.960;2022-09-09T06:23:46;100917.28;;;14.39;100.00
61271;BME280;47150;53.032;8.960;2022-09-09T06:26:18;100913.63;;;14.43;100.00
61271;BME280;47150;53.032;8.960;2022-09-09T06:28:45;100908.97;;;14.51;100.00
61271;BME280;47150;53.032;8.960;2022-09-09T06:31:15;100907.44;;;14.72;100.00
61271;BME280;47150;53.032;8.960;2022-09-09T06:33:49;100914.84;;;14.88;100.00
61271;BME280;47150;53.032;8.960;2022-09-09T06:36:18;100913.59;;;15.00;100.00
61271;BME280;47150;53.032;8.960;2022-09-09T06:38:46;100907.97;;;15.09;100.00
61271;BME280;47150;53.032;8.960;2022-09-09T06:41:14;100907.88;;;15.12;100.00
61271;BME280;47150;53.032;8.960;2022-09-09T06:43:41;100907.22;;;15.30;100.00
61271;BME280;47150;53.032;8.960;2022-09-09T06:46:16;100912.50;;;15.56;100.00
61271;BME280;47150;53.032;8.960;2022-09-09T06:48:44;100907.41;;;15.75;100.00
61271;BME280;47150;53.032;8.960;2022-09-09T06:51:13;100911.88;;;15.73;100.00
61271;BME280;47150;53.032;8.960;2022-09-09T06:53:42;100905.84;;;15.69;100.00
61271;BME280;47150;53.032;8.960;2022-09-09T06:58:39;100899.41;;;15.76;100.00
61271;BME280;47150;53.032;8.960;2022-09-09T07:01:10;100905.66;;;15.74;100.00
61271;BME280;47150;53.032;8.960;2022-09-09T07:03:38;100904.31;;;15.87;100.00
61271;BME280;47150;53.032;8.960;2022-09-09T07:06:05;100905.94;;;15.91;100.00
61271;BME280;47150;53.032;8.960;2022-09-09T07:08:33;100910.00;;;15.76;100.00
61271;BME280;47150;53.032;8.960;2022-09-09T07:11:03;100898.97;;;15.89;100.00
61271;BME280;47150;53.032;8.960;2022-09-09T07:13:30;100903.50;;;15.85;100.00
61271;BME280;47150;53.032;8.960;2022-09-09T07:16:07;100900.91;;;15.83;100.00
61271;BME280;47150;53.032;8.960;2022-09-09T07:18:34;100908.47;;;15.94;100.00
61271;BME280;47150;53.032;8.960;2022-09-09T07:21:01;100917.97;;;16.00;100.00
61271;BME280;47150;53.032;8.960;2022-09-09T07:23:29;100911.25;;;15.91;100.00
61271;BME280;47150;53.032;8.960;2022-09-09T07:25:56;100911.63;;;16.04;100.00
61271;BME280;47150;53.032;8.960;2022-09-09T07:28:23;100919.41;;;16.09;100.00
61271;BME280;47150;53.032;8.960;2022-09-09T07:30:59;100916.88;;;16.06;100.00
61271;BME280;47150;53.032;8.960;2022-09-09T07:33:30;100919.88;;;16.20;100.00
61271;BME280;47150;53.032;8.960;2022-09-09T07:36:07;100918.56;;;16.30;100.00
61271;BME280;47150;53.032;8.960;2022-09-09T07:38:45;100922.84;;;16.34;100.00
61271;BME280;47150;53.032;8.960;2022-09-09T07:41:18;100923.28;;;16.46;100.00
61271;BME280;47150;53.032;8.960;2022-09-09T07:43:46;100929.13;;;16.32;100.00
61271;BME280;47150;53.032;8.960;2022-09-09T07:46:14;100929.63;;;16.42;100.00
61271;BME280;47150;53.032;8.960;2022-09-09T07:48:47;100927.94;;;16.61;100.00
61271;BME280;47150;53.032;8.960;2022-09-09T07:51:17;100933.81;;;16.47;100.00
61271;BME280;47150;53.032;8.960;2022-09-09T07:53:46;100929.47;;;16.46;100.00
61271;BME280;47150;53.032;8.960;2022-09-09T07:56:15;100925.44;;;16.58;100.00
61271;BME280;47150;53.032;8.960;2022-09-09T07:58:45;100938.63;;;16.82;100.00
61271;BME280;47150;53.032;8.960;2022-09-09T08:01:17;100924.56;;;16.80;100.00
61271;BME280;47150;53.032;8.960;2022-09-09T08:03:46;100920.03;;;16.82;100.00
61271;BME280;47150;53.032;8.960;2022-09-09T08:06:13;100926.75;;;16.92;100.00
61271;BME280;47150;53.032;8.960;2022-09-09T08:08:39;100914.94;;;16.99;100.00
61271;BME280;47150;53.032;8.960;2022-09-09T08:11:12;100916.59;;;17.02;100.00
61271;BME280;47150;53.032;8.960;2022-09-09T08:13:40;100915.53;;;17.06;100.00
61271;BME280;47150;53.032;8.960;2022-09-09T08:16:18;100920.25;;;17.20;100.00
61271;BME280;47150;53.032;8.960;2022-09-09T08:18:50;100908.81;;;17.39;100.00
61271;BME280;47150;53.032;8.960;2022-09-09T08:21:28;100911.97;;;17.67;100.00
61271;BME280;47150;53.032;8.960;2022-09-09T08:23:56;100906.88;;;18.02;100.00
61271;BME280;47150;53.032;8.960;2022-09-09T08:26:25;100910.28;;;17.85;100.00
61271;BME280;47150;53.032;8.960;2022-09-09T08:28:54;100902.34;;;18.04;100.00
61271;BME280;47150;53.032;8.960;2022-09-09T08:31:31;100914.78;;;18.23;100.00
61271;BME280;47150;53.032;8.960;2022-09-09T08:34:06;100911.25;;;18.42;100.00
61271;BME280;47150;53.032;8.960;2022-09-09T08:36:46;100909.03;;;18.32;100.00
61271;BME280;47150;53.032;8.960;2022-09-09T08:39:15;100901.22;;;18.47;100.00
61271;BME280;47150;53.032;8.960;2022-09-09T08:47:25;100910.06;;;18.66;100.00
61271;BME280;47150;53.032;8.960;2022-09-09T08:50:25;100909.34;;;18.44;100.00
61271;BME280;47150;53.032;8.960;2022-09-09T08:53:16;100908.69;;;18.21;100.00
61271;BME280;47150;53.032;8.960;2022-09-09T08:56:01;100899.22;;;18.52;100.00
61271;BME280;47150;53.032;8.960;2022-09-09T08:58:48;100906.25;;;18.53;100.00
61271;BME280;47150;53.032;8.960;2022-09-09T09:04:37;100907.22;;;18.69;100.00
61271;BME280;47150;53.032;8.960;2022-09-09T09:12:25;100905.94;;;19.13;100.00
61271;BME280;47150;53.032;8.960;2022-09-09T09:14:54;100892.34;;;19.35;100.00
61271;BME280;47150;53.032;8.960;2022-09-09T09:17:25;100899.75;;;19.30;100.00
61271;BME280;47150;53.032;8.960;2022-09-09T09:19:56;100896.78;;;19.01;100.00
61271;BME280;47150;53.032;8.960;2022-09-09T09:22:32;100900.38;;;19.00;100.00
61271;BME280;47150;53.032;8.960;2022-09-09T09:25:27;100899.13;;;19.08;100.00
61271;BME280;47150;53.032;8.960;2022-09-09T09:31:12;100903.22;;;18.97;100.00
61271;BME280;47150;53.032;8.960;2022-09-09T09:33:48;100903.16;;;18.80;100.00
61271;BME280;47150;53.032;8.960;2022-09-09T09:36:33;100903.97;;;18.99;100.00
61271;BME280;47150;53.032;8.960;2022-09-09T09:39:04;100899.94;;;19.10;100.00
61271;BME280;47150;53.032;8.960;2022-09-09T09:41:33;100902.25;;;19.33;100.00
61271;BME280;47150;53.032;8.960;2022-09-09T09:44:02;100900.41;;;19.51;100.00
61271;BME280;47150;53.032;8.960;2022-09-09T09:46:28;100894.00;;;19.71;100.00
61271;BME280;47150;53.032;8.960;2022-09-09T09:49:02;100891.19;;;19.74;100.00
61271;BME280;47150;53.032;8.960;2022-09-09T09:51:32;100890.88;;;19.81;100.00
61271;BME280;47150;53.032;8.960;2022-09-09T09:54:28;100893.56;;;20.13;100.00
61271;BME280;47150;53.032;8.960;2022-09-09T09:57:12;100900.38;;;20.02;100.00
61271;BME280;47150;53.032;8.960;2022-09-09T09:59:40;100894.94;;;19.88;100.00
61271;BME280;47150;53.032;8.960;2022-09-09T10:07:45;100908.97;;;19.74;100.00
61271;BME280;47150;53.032;8.960;2022-09-09T10:10:26;100902.25;;;19.51;100.00
61271;BME280;47150;53.032;8.960;2022-09-09T10:13:15;100904.16;;;19.65;100.00
61271;BME280;47150;53.032;8.960;2022-09-09T10:18:59;100903.81;;;19.88;100.00
61271;BME280;47150;53.032;8.960;2022-09-09T10:22:00;100907.34;;;20.21;100.00
61271;BME280;47150;53.032;8.960;2022-09-09T10:27:50;100897.72;;;20.34;100.00
61271;BME280;47150;53.032;8.960;2022-09-09T10:30:24;100911.22;;;20.31;100.00
61271;BME280;47150;53.032;8.960;2022-09-09T10:33:14;100909.84;;;20.24;100.00
61271;BME280;47150;53.032;8.960;2022-09-09T10:36:02;100914.56;;;20.83;100.00
61271;BME280;47150;53.032;8.960;2022-09-09T10:38:52;100905.53;;;20.69;100.00
61271;BME280;47150;53.032;8.960;2022-09-09T10:41:45;100903.19;;;20.79;100.00
61271;BME280;47150;53.032;8.960;2022-09-09T10:50:40;100890.00;;;21.06;100.00
61271;BME280;47150;53.032;8.960;2022-09-09T10:53:35;100887.03;;;20.97;100.00
61271;BME280;47150;53.032;8.960;2022-09-09T10:56:16;100892.81;;;20.89;100.00
61271;BME280;47150;53.032;8.960;2022-09-09T10:58:51;100891.56;;;21.25;100.00
61271;BME280;47150;53.032;8.960;2022-09-09T11:04:05;100887.09;;;21.40;100.00
61271;BME280;47150;53.032;8.960;2022-09-09T11:06:41;100892.28;;;21.13;100.00
61271;BME280;47150;53.032;8.960;2022-09-09T11:09:33;100890.69;;;21.10;100.00
61271;BME280;47150;53.032;8.960;2022-09-09T11:12:05;100873.44;;;21.44;100.00
61271;BME280;47150;53.032;8.960;2022-09-09T11:14:43;100871.84;;;21.42;100.00
61271;BME280;47150;53.032;8.960;2022-09-09T11:17:18;100880.50;;;21.89;100.00
61271;BME280;47150;53.032;8.960;2022-09-09T11:19:48;100884.16;;;21.88;100.00
61271;BME280;47150;53.032;8.960;2022-09-09T11:25:35;100875.75;;;21.51;100.00
61271;BME280;47150;53.032;8.960;2022-09-09T11:28:22;100883.88;;;21.78;100.00
61271;BME280;47150;53.032;8.960;2022-09-09T11:31:28;100877.47;;;21.95;100.00
61271;BME280;47150;53.032;8.960;2022-09-09T11:40:15;100875.50;;;23.06;100.00
61271;BME280;47150;53.032;8.960;2022-09-09T11:42:46;100877.97;;;22.96;100.00
61271;BME280;47150;53.032;8.960;2022-09-09T11:45:24;100874.53;;;23.85;100.00
61271;BME280;47150;53.032;8.960;2022-09-09T11:47:58;100867.03;;;24.75;100.00
61271;BME280;47150;53.032;8.960;2022-09-09T11:52:51;100867.56;;;23.82;100.00
61271;BME280;47150;53.032;8.960;2022-09-09T11:55:30;100872.03;;;22.24;100.00
61271;BME280;47150;53.032;8.960;2022-09-09T11:57:59;100876.72;;;22.20;100.00
61271;BME280;47150;53.032;8.960;2022-09-09T12:06:25;100908.56;;;21.38;100.00
61271;BME280;47150;53.032;8.960;2022-09-09T12:09:09;100912.16;;;20.46;100.00
61271;BME280;47150;53.032;8.960;2022-09-09T12:11:44;100908.97;;;19.40;100.00
61271;BME280;47150;53.032;8.960;2022-09-09T12:14:23;100917.69;;;19.44;100.00
61271;BME280;47150;53.032;8.960;2022-09-09T12:17:19;100922.88;;;19.12;100.00
61271;BME280;47150;53.032;8.960;2022-09-09T12:19:47;100925.06;;;18.67;100.00
61271;BME280;47150;53.032;8.960;2022-09-09T12:22:45;100937.31;;;18.52;100.00
61271;BME280;47150;53.032;8.960;2022-09-09T12:25:35;100938.34;;;18.50;100.00
61271;BME280;47150;53.032;8.960;2022-09-09T12:28:22;100930.53;;;18.64;100.00
61271;BME280;47150;53.032;8.960;2022-09-09T12:31:05;100929.94;;;18.77;100.00
61271;BME280;47150;53.032;8.960;2022-09-09T12:33:43;100934.59;;;18.54;100.00
61271;BME280;47150;53.032;8.960;2022-09-09T12:36:21;100936.53;;;18.87;100.00
61271;BME280;47150;53.032;8.960;2022-09-09T12:38:49;100927.03;;;19.00;100.00
61271;BME280;47150;53.032;8.960;2022-09-09T12:41:22;100930.53;;;18.28;100.00
61271;BME280;47150;53.032;8.960;2022-09-09T12:43:50;100942.78;;;18.49;100.00
61271;BME280;47150;53.032;8.960;2022-09-09T12:46:39;100944.78;;;18.63;100.00
61271;BME280;47150;53.032;8.960;2022-09-09T12:51:51;100946.75;;;18.96;100.00
61271;BME280;47150;53.032;8.960;2022-09-09T12:54:17;100942.13;;;18.63;100.00
61271;BME280;47150;53.032;8.960;2022-09-09T12:56:46;100943.81;;;19.02;100.00
61271;BME280;47150;53.032;8.960;2022-09-09T12:59:25;100954.13;;;18.72;100.00
61271;BME280;47150;53.032;8.960;2022-09-09T13:01:59;100953.19;;;18.92;100.00
61271;BME280;47150;53.032;8.960;2022-09-09T13:04:25;100947.38;;;18.65;100.00
61271;BME280;47150;53.032;8.960;2022-09-09T13:06:50;100931.72;;;19.13;100.00
61271;BME280;47150;53.032;8.960;2022-09-09T13:09:17;100917.25;;;19.52;100.00
61271;BME280;47150;53.032;8.960;2022-09-09T13:11:52;100913.00;;;19.65;100.00
61271;BME280;47150;53.032;8.960;2022-09-09T13:14:31;100895.72;;;19.90;100.00
61271;BME280;47150;53.032;8.960;2022-09-09T13:17:01;100894.88;;;19.38;100.00
61271;BME280;47150;53.032;8.960;2022-09-09T13:19:43;100897.09;;;19.97;100.00
61271;BME280;47150;53.032;8.960;2022-09-09T13:22:29;100891.38;;;20.83;100.00
61271;BME280;47150;53.032;8.960;2022-09-09T13:25:01;100893.16;;;21.58;100.00
61271;BME280;47150;53.032;8.960;2022-09-09T13:27:35;100892.88;;;21.03;100.00
61271;BME280;47150;53.032;8.960;2022-09-09T13:35:55;100887.38;;;22.07;100.00
61271;BME280;47150;53.032;8.960;2022-09-09T13:38:23;100886.69;;;22.18;100.00
61271;BME280;47150;53.032;8.960;2022-09-09T13:41:01;100891.31;;;20.53;100.00
61271;BME280;47150;53.032;8.960;2022-09-09T13:43:33;100895.28;;;20.62;100.00
61271;BME280;47150;53.032;8.960;2022-09-09T13:46:24;100892.09;;;20.55;100.00
61271;BME280;47150;53.032;8.960;2022-09-09T13:48:56;100884.97;;;21.16;100.00
61271;BME280;47150;53.032;8.960;2022-09-09T13:51:50;100885.56;;;19.97;100.00
61271;BME280;47150;53.032;8.960;2022-09-09T13:54:20;100893.47;;;20.62;100.00
61271;BME280;47150;53.032;8.960;2022-09-09T13:56:46;100882.97;;;20.43;100.00
61271;BME280;47150;53.032;8.960;2022-09-09T13:59:18;100886.44;;;19.97;100.00
61271;BME280;47150;53.032;8.960;2022-09-09T14:01:49;100894.34;;;19.65;100.00
61271;BME280;47150;53.032;8.960;2022-09-09T14:04:17;100893.50;;;19.65;100.00
61271;BME280;47150;53.032;8.960;2022-09-09T14:06:47;100900.81;;;19.44;100.00
61271;BME280;47150;53.032;8.960;2022-09-09T14:09:15;100913.31;;;19.26;100.00
61271;BME280;47150;53.032;8.960;2022-09-09T14:11:42;100912.41;;;18.72;100.00
61271;BME280;47150;53.032;8.960;2022-09-09T14:14:08;100927.19;;;18.78;100.00
61271;BME280;47150;53.032;8.960;2022-09-09T14:16:34;100944.88;;;18.43;100.00
61271;BME280;47150;53.032;8.960;2022-09-09T14:18:59;100967.81;;;18.26;100.00
61271;BME280;47150;53.032;8.960;2022-09-09T14:21:26;100968.03;;;18.21;100.00
61271;BME280;47150;53.032;8.960;2022-09-09T14:23:52;100958.31;;;18.59;100.00
61271;BME280;47150;53.032;8.960;2022-09-09T14:26:18;100946.47;;;18.47;100.00
61271;BME280;47150;53.032;8.960;2022-09-09T14:28:46;100945.25;;;18.16;100.00
61271;BME280;47150;53.032;8.960;2022-09-09T14:31:13;100939.44;;;17.87;100.00
61271;BME280;47150;53.032;8.960;2022-09-09T14:33:39;100948.16;;;17.91;100.00
61271;BME280;47150;53.032;8.960;2022-09-09T14:36:06;100938.94;;;17.79;100.00
61271;BME280;47150;53.032;8.960;2022-09-09T14:38:33;100943.19;;;17.83;100.00
61271;BME280;47150;53.032;8.960;2022-09-09T14:41:05;100935.16;;;17.64;100.00
61271;BME280;47150;53.032;8.960;2022-09-09T14:43:31;100928.03;;;17.45;100.00
61271;BME280;47150;53.032;8.960;2022-09-09T14:46:04;100933.94;;;17.52;100.00
61271;BME280;47150;53.032;8.960;2022-09-09T14:48:34;100950.00;;;17.28;100.00
61271;BME280;47150;53.032;8.960;2022-09-09T14:51:11;100958.91;;;17.27;100.00